Time;durP1;ratioP1;P1;durP2;ratioP2;P2;SDS_P1;SDS_P2;PMS_P1;PMS_P2;Temp;Humidity;BMP_temperature;BMP_pressure;BME280_temperature;BME280_humidity;BME280_pressure;Samples;Min_cycle;Max_cycle;Signal;HPM_P1;HPM_P2
2022/05/25 00:01:50;;;;;;;0.00;0.00;;;;;;;17.39;100.00;98804.22;5039078;28;20542;-79
2022/05/25 00:04:17;;;;;;;0.10;0.10;;;;;;;17.23;100.00;98809.41;5035736;28;20095;-80
2022/05/25 00:06:43;;;;;;;0.45;0.45;;;;;;;17.10;100.00;98809.31;5032389;28;20034;-78
2022/05/25 00:09:09;;;;;;;0.10;0.10;;;;;;;17.04;100.00;98805.22;5029275;28;20033;-79
2022/05/25 00:11:34;;;;;;;0.10;0.10;;;;;;;16.98;100.00;98811.09;5029722;28;20040;-79
2022/05/25 00:14:01;;;;;;;0.10;0.10;;;;;;;16.84;100.00;98811.28;5041862;28;20033;-78
2022/05/25 00:16:26;;;;;;;0.10;0.10;;;;;;;16.74;100.00;98813.22;5029374;28;20619;-83
2022/05/25 00:21:36;;;;;;;0.80;0.45;;;;;;;16.60;100.00;98823.41;5035699;28;20068;-77
2022/05/25 00:24:01;;;;;;;0.30;0.30;;;;;;;16.57;100.00;98824.06;5039300;28;20033;-78
2022/05/25 00:26:27;;;;;;;0.40;0.40;;;;;;;16.51;100.00;98818.03;5044888;28;20164;-78
2022/05/25 00:28:52;;;;;;;0.73;0.73;;;;;;;16.47;100.00;98828.69;5031032;28;20035;-77
2022/05/25 00:31:18;;;;;;;0.40;0.40;;;;;;;16.43;100.00;98826.94;5049445;28;20029;-79
2022/05/25 00:33:43;;;;;;;0.10;0.10;;;;;;;16.38;100.00;98830.63;5041739;28;20087;-77
2022/05/25 00:36:09;;;;;;;0.00;0.00;;;;;;;16.30;100.00;98826.81;5031718;28;20045;-78
2022/05/25 00:38:34;;;;;;;0.10;0.10;;;;;;;16.26;100.00;98817.78;5029373;28;20025;-78
2022/05/25 00:40:59;;;;;;;0.10;0.10;;;;;;;16.29;100.00;98827.13;5030679;28;20034;-78
2022/05/25 00:43:25;;;;;;;0.43;0.43;;;;;;;16.31;100.00;98830.31;5029424;28;20069;-77
2022/05/25 00:45:55;;;;;;;0.38;0.38;;;;;;;16.28;100.00;98841.72;5035712;28;20029;-79
2022/05/25 00:48:40;;;;;;;0.30;0.30;;;;;;;16.23;100.00;98842.69;5045912;28;20021;-77
2022/05/25 00:51:12;;;;;;;0.15;0.15;;;;;;;16.19;100.00;98846.34;5029492;28;20029;-77
2022/05/25 00:54:00;;;;;;;0.52;0.52;;;;;;;16.08;100.00;98843.97;5028654;28;20049;-78
2022/05/25 00:56:29;;;;;;;0.20;0.20;;;;;;;16.02;100.00;98849.84;5029760;28;20030;-78
2022/05/25 00:59:08;;;;;;;0.20;0.20;;;;;;;15.97;100.00;98846.19;5029617;28;20420;-78
2022/05/25 01:01:34;;;;;;;0.35;0.35;;;;;;;15.94;100.00;98846.81;5029941;28;20068;-78
2022/05/25 01:04:00;;;;;;;0.50;0.50;;;;;;;15.87;100.00;98846.50;5033131;28;20500;-81
2022/05/25 01:06:54;;;;;;;0.38;0.30;;;;;;;15.81;100.00;98836.94;5046714;28;20044;-81
2022/05/25 01:09:38;;;;;;;0.40;0.40;;;;;;;15.72;100.00;98846.91;5049268;28;20029;-79
2022/05/25 01:12:34;;;;;;;0.00;0.00;;;;;;;15.66;100.00;98860.56;5049310;28;20028;-83
2022/05/25 01:15:21;;;;;;;1.10;1.00;;;;;;;15.61;100.00;98865.28;5028788;28;20033;-81
2022/05/25 01:17:52;;;;;;;1.70;0.83;;;;;;;15.57;100.00;98861.66;5038926;28;20052;-80
2022/05/25 01:20:37;;;;;;;0.57;0.57;;;;;;;15.52;100.00;98859.88;5046694;28;20033;-84
2022/05/25 01:23:15;;;;;;;0.45;0.45;;;;;;;15.48;100.00;98862.41;5048621;28;20035;-80
2022/05/25 01:26:11;;;;;;;2.33;0.30;;;;;;;15.44;100.00;98866.03;5049521;28;20033;-81
2022/05/25 01:28:55;;;;;;;7.60;1.00;;;;;;;15.41;100.00;98866.69;5029185;28;20072;-82
2022/05/25 01:31:31;;;;;;;0.43;0.43;;;;;;;15.35;100.00;98866.78;5032944;28;20032;-77
2022/05/25 01:34:06;;;;;;;0.20;0.20;;;;;;;15.33;100.00;98874.41;5042094;28;20032;-78
2022/05/25 01:36:43;;;;;;;0.10;0.10;;;;;;;15.31;100.00;98884.69;5040312;28;20472;-78
2022/05/25 01:39:22;;;;;;;0.17;0.17;;;;;;;15.28;100.00;98879.94;5033218;28;20489;-76
2022/05/25 01:42:05;;;;;;;0.10;0.10;;;;;;;15.28;100.00;98889.91;5053236;28;20029;-77
2022/05/25 01:44:46;;;;;;;0.22;0.22;;;;;;;15.22;100.00;98883.88;5054094;28;20104;-77
2022/05/25 01:47:12;;;;;;;0.63;0.63;;;;;;;15.25;100.00;98885.94;5052427;28;20029;-76
2022/05/25 01:49:48;;;;;;;0.30;0.30;;;;;;;15.26;100.00;98894.81;5048263;28;20032;-77
2022/05/25 01:52:18;;;;;;;0.08;0.08;;;;;;;15.25;100.00;98885.94;5035252;28;20029;-77
2022/05/25 01:54:54;;;;;;;0.30;0.30;;;;;;;15.21;100.00;98887.69;5034258;28;20053;-77
2022/05/25 01:57:24;;;;;;;0.73;0.73;;;;;;;15.16;100.00;98885.91;5037788;28;20045;-78
2022/05/25 01:59:49;;;;;;;0.10;0.10;;;;;;;15.14;100.00;98892.72;5033129;28;20026;-76
2022/05/25 02:05:02;;;;;;;0.40;0.40;;;;;;;15.11;100.00;98902.22;5033207;28;20091;-78
2022/05/25 02:07:46;;;;;;;0.25;0.25;;;;;;;15.08;100.00;98902.03;5044057;28;20082;-79
2022/05/25 02:10:58;;;;;;;0.13;0.13;;;;;;;15.14;100.00;98904.28;5052259;28;20033;-78
2022/05/25 02:14:01;;;;;;;0.60;0.60;;;;;;;15.19;100.00;98914.91;5036806;28;20038;-82
2022/05/25 02:17:12;;;;;;;0.60;0.60;;;;;;;15.13;100.00;98907.28;5036904;28;20033;-81
2022/05/25 02:20:05;;;;;;;0.65;0.65;;;;;;;15.09;100.00;98909.81;5031608;28;20034;-81
2022/05/25 02:22:30;;;;;;;0.63;0.63;;;;;;;15.07;100.00;98906.63;5031330;28;20033;-77
2022/05/25 02:25:04;;;;;;;0.10;0.10;;;;;;;15.07;100.00;98895.84;5033251;28;20029;-76
2022/05/25 02:27:35;;;;;;;0.00;0.00;;;;;;;15.12;100.00;98909.16;5045505;28;20118;-78
2022/05/25 02:30:10;;;;;;;0.00;0.00;;;;;;;15.15;100.00;98911.25;5051615;28;20044;-80
2022/05/25 02:32:46;;;;;;;0.55;0.55;;;;;;;15.14;100.00;98919.66;5042149;28;20115;-78
2022/05/25 02:35:14;;;;;;;0.50;0.50;;;;;;;15.14;100.00;98923.13;5030871;28;20053;-82
2022/05/25 02:37:40;;;;;;;0.10;0.10;;;;;;;15.13;100.00;98920.75;5032838;28;20151;-78
2022/05/25 02:40:08;;;;;;;0.10;0.10;;;;;;;15.15;100.00;98930.13;5032217;28;20405;-77
2022/05/25 02:42:38;;;;;;;0.30;0.30;;;;;;;15.15;100.00;98932.81;5032017;28;20036;-82
2022/05/25 02:45:05;;;;;;;0.10;0.10;;;;;;;15.14;100.00;98933.91;5047534;28;20040;-87
2022/05/25 02:47:30;;;;;;;0.00;0.00;;;;;;;15.14;100.00;98938.50;5050343;28;20114;-82
2022/05/25 02:49:55;;;;;;;0.30;0.30;;;;;;;15.13;100.00;98945.78;5041182;28;20690;-82
2022/05/25 02:52:21;;;;;;;0.10;0.10;;;;;;;15.11;100.00;98939.13;5044997;28;20021;-84
2022/05/25 02:54:47;;;;;;;0.00;0.00;;;;;;;15.08;100.00;98945.13;5048348;28;20031;-83
2022/05/25 02:57:12;;;;;;;0.52;0.52;;;;;;;15.07;100.00;98946.22;5030938;28;20044;-78
2022/05/25 02:59:38;;;;;;;0.00;0.00;;;;;;;14.98;100.00;98946.19;5031854;28;20030;-79
2022/05/25 03:02:07;;;;;;;0.30;0.30;;;;;;;14.88;100.00;98942.63;5032284;28;20075;-77
2022/05/25 03:04:37;;;;;;;0.40;0.40;;;;;;;14.87;100.00;98940.25;5030921;28;20035;-79
2022/05/25 03:07:04;;;;;;;0.20;0.20;;;;;;;14.81;100.00;98944.19;5036124;28;20064;-79
2022/05/25 03:09:29;;;;;;;0.10;0.10;;;;;;;14.72;100.00;98942.22;5050529;28;20053;-77
2022/05/25 03:11:55;;;;;;;0.00;0.00;;;;;;;14.68;100.00;98937.75;5052002;28;20100;-78
2022/05/25 03:14:20;;;;;;;0.40;0.40;;;;;;;14.63;100.00;98944.00;5041306;28;20485;-79
2022/05/25 03:16:46;;;;;;;0.50;0.50;;;;;;;14.60;100.00;98941.94;5033985;28;20029;-79
2022/05/25 03:19:11;;;;;;;0.32;0.32;;;;;;;14.63;100.00;98956.66;5050586;28;20029;-78
2022/05/25 03:21:37;;;;;;;0.65;0.50;;;;;;;14.66;100.00;98956.88;5031072;28;20673;-78
2022/05/25 03:24:02;;;;;;;0.10;0.10;;;;;;;14.72;100.00;98957.53;5031826;28;20035;-80
2022/05/25 03:26:28;;;;;;;0.10;0.10;;;;;;;14.75;100.00;98969.63;5035547;28;20477;-78
2022/05/25 03:28:53;;;;;;;0.00;0.00;;;;;;;14.77;100.00;98972.78;5030462;28;20033;-80
2022/05/25 03:31:19;;;;;;;0.10;0.10;;;;;;;14.78;100.00;98972.50;5030069;28;20025;-80
2022/05/25 03:33:44;;;;;;;0.10;0.10;;;;;;;14.85;100.00;98980.13;5029613;28;20048;-79
2022/05/25 03:36:10;;;;;;;0.00;0.00;;;;;;;14.93;100.00;98983.97;5030998;28;20437;-81
2022/05/25 03:38:36;;;;;;;0.20;0.20;;;;;;;15.02;100.00;98980.25;5029682;28;20124;-82
2022/05/25 03:41:02;;;;;;;0.05;0.05;;;;;;;15.09;100.00;98985.22;5030088;28;20059;-80
2022/05/25 03:43:35;;;;;;;0.05;0.05;;;;;;;15.16;100.00;98982.06;5030290;28;20034;-79
2022/05/25 03:46:00;;;;;;;0.10;0.10;;;;;;;15.21;100.00;98979.28;5031260;28;20033;-80
2022/05/25 03:48:26;;;;;;;0.00;0.00;;;;;;;15.22;100.00;98980.84;5030119;28;20036;-81
2022/05/25 03:50:51;;;;;;;0.05;0.05;;;;;;;15.23;100.00;98993.22;5039014;28;20037;-80
2022/05/25 03:53:17;;;;;;;0.55;0.55;;;;;;;15.24;100.00;98991.31;5049095;28;20037;-79
2022/05/25 03:55:43;;;;;;;0.10;0.10;;;;;;;15.19;100.00;98995.72;5049091;28;20145;-79
2022/05/25 03:58:09;;;;;;;0.13;0.13;;;;;;;15.21;100.00;98993.53;5049762;28;20032;-79
2022/05/25 04:00:35;;;;;;;0.22;0.22;;;;;;;15.35;100.00;98988.03;5049790;28;20025;-79
2022/05/25 04:03:02;;;;;;;0.03;0.03;;;;;;;15.42;100.00;98998.41;5051177;28;20055;-79
2022/05/25 04:05:29;;;;;;;0.10;0.10;;;;;;;15.46;100.00;98995.88;5043714;28;20061;-77
2022/05/25 04:07:58;;;;;;;0.15;0.15;;;;;;;15.56;100.00;99003.69;5049665;28;20032;-78
2022/05/25 04:10:25;;;;;;;0.28;0.28;;;;;;;15.63;100.00;99014.03;5049877;28;20453;-80
2022/05/25 04:12:51;;;;;;;0.10;0.10;;;;;;;15.73;100.00;99013.75;5050550;28;20040;-82
2022/05/25 04:15:26;;;;;;;0.28;0.28;;;;;;;15.76;100.00;99017.72;5049460;28;20514;-82
2022/05/25 04:17:52;;;;;;;0.20;0.20;;;;;;;15.76;100.00;99018.53;5048385;28;20408;-79
2022/05/25 04:20:19;;;;;;;0.10;0.10;;;;;;;15.81;100.00;99025.69;5048691;28;20067;-78
2022/05/25 04:22:45;;;;;;;0.20;0.20;;;;;;;15.81;100.00;99026.47;5035524;28;20506;-78
2022/05/25 04:25:14;;;;;;;0.10;0.10;;;;;;;15.86;100.00;99028.28;5030943;28;20029;-80
2022/05/25 04:27:41;;;;;;;1.25;0.40;;;;;;;15.80;100.00;99019.50;5044940;28;20017;-83
2022/05/25 04:30:10;;;;;;;0.10;0.10;;;;;;;15.83;100.00;99028.88;5033232;28;20033;-88
2022/05/25 04:32:36;;;;;;;0.10;0.10;;;;;;;15.86;100.00;99033.66;5031644;28;20043;-79
2022/05/25 04:35:02;;;;;;;0.40;0.40;;;;;;;15.87;100.00;99040.66;5033094;28;20120;-79
2022/05/25 04:40:12;;;;;;;5.47;1.55;;;;;;;15.76;99.86;99039.28;5036857;28;20060;-79
2022/05/25 04:42:39;;;;;;;0.38;0.38;;;;;;;15.66;100.00;99034.97;5032790;28;20040;-79
2022/05/25 04:45:06;;;;;;;0.55;0.55;;;;;;;15.60;100.00;99045.09;5030630;28;20136;-78
2022/05/25 04:47:33;;;;;;;0.57;0.57;;;;;;;15.53;100.00;99040.16;5036315;28;20112;-80
2022/05/25 04:50:00;;;;;;;1.10;1.10;;;;;;;15.50;100.00;99048.06;5049981;28;20067;-84
2022/05/25 04:52:26;;;;;;;0.30;0.30;;;;;;;15.47;100.00;99044.06;5042258;28;20120;-82
2022/05/25 04:54:51;;;;;;;1.40;1.30;;;;;;;15.51;100.00;99052.34;5050649;28;20135;-78
2022/05/25 04:57:20;;;;;;;0.20;0.20;;;;;;;15.56;100.00;99056.81;5043268;28;20063;-79
2022/05/25 04:59:50;;;;;;;0.00;0.00;;;;;;;15.56;100.00;99051.41;5037759;28;20052;-78
2022/05/25 05:02:17;;;;;;;0.52;0.52;;;;;;;15.53;99.00;99056.31;5047556;28;20037;-80
2022/05/25 05:04:43;;;;;;;0.98;0.90;;;;;;;15.55;99.21;99061.41;5052836;28;20029;-79
2022/05/25 05:07:09;;;;;;;2.83;0.68;;;;;;;15.53;99.37;99060.91;5048180;28;20219;-79
2022/05/25 05:09:36;;;;;;;0.20;0.20;;;;;;;15.51;99.55;99066.63;5053013;28;20112;-81
2022/05/25 05:12:02;;;;;;;0.40;0.40;;;;;;;15.46;98.36;99063.25;5035394;28;20037;-81
2022/05/25 05:14:28;;;;;;;1.00;0.60;;;;;;;15.45;99.09;99065.16;5035315;28;20072;-80
2022/05/25 05:17:02;;;;;;;1.55;0.93;;;;;;;15.44;99.23;99074.34;5032713;28;20037;-81
2022/05/25 05:19:28;;;;;;;1.92;1.08;;;;;;;15.47;99.60;99071.03;5034182;28;20029;-81
2022/05/25 05:21:54;;;;;;;0.40;0.40;;;;;;;15.49;99.80;99079.59;5033962;28;20029;-79
2022/05/25 05:24:29;;;;;;;1.85;1.75;;;;;;;15.53;99.15;99063.63;5032657;28;20025;-79
2022/05/25 05:26:56;;;;;;;1.25;1.25;;;;;;;15.59;98.64;99069.69;5041270;28;20029;-80
2022/05/25 05:29:23;;;;;;;0.77;0.77;;;;;;;15.62;99.11;99071.75;5053478;28;20096;-79
2022/05/25 05:31:48;;;;;;;4.95;0.57;;;;;;;15.67;99.27;99074.31;5052009;28;20120;-81
2022/05/25 05:34:14;;;;;;;0.43;0.43;;;;;;;15.78;99.35;99075.66;5052609;28;20511;-88
2022/05/25 05:36:44;;;;;;;1.20;0.80;;;;;;;15.96;98.99;99070.34;5051433;28;20063;-78
2022/05/25 05:39:12;;;;;;;3.03;1.50;;;;;;;16.07;98.37;99077.06;5042544;28;20521;-85
2022/05/25 05:41:42;;;;;;;2.78;0.60;;;;;;;16.24;98.45;99084.41;5045694;28;20033;-86
2022/05/25 05:44:09;;;;;;;0.40;0.40;;;;;;;16.42;97.92;99085.28;5047564;28;20120;-78
2022/05/25 05:46:38;;;;;;;0.10;0.10;;;;;;;16.64;98.46;99083.56;5051067;28;20504;-81
2022/05/25 05:49:08;;;;;;;0.20;0.20;;;;;;;16.91;97.44;99090.59;5052428;28;20113;-84
2022/05/25 05:51:35;;;;;;;0.77;0.77;;;;;;;17.09;94.49;99093.34;5051837;28;20029;-81
2022/05/25 05:54:02;;;;;;;6.30;1.65;;;;;;;17.22;94.46;99092.38;5052392;28;20534;-78
2022/05/25 05:56:29;;;;;;;0.60;0.60;;;;;;;17.42;94.37;99084.72;5046901;28;20044;-79
2022/05/25 05:58:55;;;;;;;0.38;0.38;;;;;;;17.67;93.66;99087.69;5053653;28;20021;-79
2022/05/25 06:01:20;;;;;;;0.10;0.10;;;;;;;17.99;93.10;99085.53;5051945;28;20039;-83
2022/05/25 06:03:45;;;;;;;0.32;0.32;;;;;;;18.28;90.06;99082.06;5051841;28;20036;-78
2022/05/25 06:06:11;;;;;;;0.73;0.73;;;;;;;18.61;88.26;99075.97;5053033;28;20471;-78
2022/05/25 06:08:36;;;;;;;0.10;0.10;;;;;;;19.01;86.68;99080.19;5051775;28;20025;-78
2022/05/25 06:11:02;;;;;;;0.10;0.10;;;;;;;19.45;85.56;99091.44;5040815;28;20042;-76
2022/05/25 06:13:27;;;;;;;0.10;0.10;;;;;;;19.84;81.86;99088.50;5033135;28;20037;-77
2022/05/25 06:21:23;;;;;;;0.25;0.25;;;;;;;21.18;77.70;99103.44;5032991;28;20559;-77
2022/05/25 06:23:49;;;;;;;0.08;0.08;;;;;;;21.48;76.66;99093.00;5041096;28;20024;-77
2022/05/25 06:26:16;;;;;;;2.28;0.43;;;;;;;21.63;74.90;99088.75;5044356;28;20053;-77
2022/05/25 06:28:42;;;;;;;0.10;0.10;;;;;;;21.87;73.46;99100.63;5032713;28;20025;-77
2022/05/25 06:31:08;;;;;;;0.20;0.20;;;;;;;21.82;72.44;99098.94;5033039;28;20386;-76
2022/05/25 06:33:34;;;;;;;0.10;0.10;;;;;;;21.94;73.76;99100.03;5041078;28;20029;-77
2022/05/25 06:36:21;;;;;;;0.00;0.00;;;;;;;22.10;72.71;99119.09;5045232;28;20045;-80
2022/05/25 06:38:47;;;;;;;0.08;0.08;;;;;;;22.13;72.31;99118.38;5037308;28;20029;-77
2022/05/25 06:41:13;;;;;;;0.00;0.00;;;;;;;22.24;72.77;99122.16;5035678;28;20051;-77
2022/05/25 06:43:39;;;;;;;0.85;0.85;;;;;;;22.29;73.39;99112.91;5030976;28;20035;-77
2022/05/25 06:46:06;;;;;;;0.68;0.68;;;;;;;22.33;71.71;99111.06;5031356;28;20464;-85
2022/05/25 06:48:31;;;;;;;0.20;0.20;;;;;;;22.46;71.64;99115.31;5034120;28;20373;-77
2022/05/25 06:50:57;;;;;;;0.30;0.30;;;;;;;22.53;70.02;99114.66;5040397;28;20033;-77
2022/05/25 06:53:22;;;;;;;0.10;0.10;;;;;;;22.53;69.46;99103.75;5052320;28;20029;-77
2022/05/25 06:55:48;;;;;;;1.65;1.55;;;;;;;22.50;69.53;99115.41;5041227;28;20040;-77
2022/05/25 06:58:13;;;;;;;0.13;0.13;;;;;;;22.48;68.86;99114.94;5031129;28;20419;-77
2022/05/25 07:00:38;;;;;;;0.30;0.20;;;;;;;22.50;69.98;99109.94;5030380;28;20048;-78
2022/05/25 07:03:06;;;;;;;0.10;0.10;;;;;;;22.54;70.30;99118.97;5031876;28;20018;-77
2022/05/25 07:05:33;;;;;;;0.57;0.57;;;;;;;22.82;68.01;99123.50;5042578;28;20035;-76
2022/05/25 07:07:59;;;;;;;0.10;0.10;;;;;;;22.58;69.32;99111.66;5051429;28;20029;-75
2022/05/25 07:10:24;;;;;;;0.40;0.40;;;;;;;22.59;69.35;99110.53;5034238;28;20029;-78
2022/05/25 07:12:50;;;;;;;0.45;0.45;;;;;;;22.68;68.89;99108.41;5034928;28;20030;-76
2022/05/25 07:15:15;;;;;;;0.10;0.10;;;;;;;22.58;65.99;99117.13;5040669;28;20024;-77
2022/05/25 07:17:42;;;;;;;0.03;0.03;;;;;;;22.54;66.11;99118.97;5051794;28;20028;-79
2022/05/25 07:20:09;;;;;;;0.00;0.00;;;;;;;22.49;66.30;99120.03;5049764;28;20120;-79
2022/05/25 07:22:35;;;;;;;0.00;0.00;;;;;;;22.52;66.22;99130.25;5033050;28;20037;-76
2022/05/25 07:25:01;;;;;;;0.10;0.10;;;;;;;22.58;66.38;99129.97;5048507;28;20036;-75
2022/05/25 07:27:26;;;;;;;0.00;0.00;;;;;;;22.64;65.38;99128.53;5037553;28;20037;-76
2022/05/25 07:29:51;;;;;;;0.00;0.00;;;;;;;22.79;66.09;99127.72;5031343;28;20049;-75
2022/05/25 07:32:19;;;;;;;0.00;0.00;;;;;;;22.90;65.75;99130.69;5031651;28;20457;-76
2022/05/25 07:34:47;;;;;;;0.00;0.00;;;;;;;22.92;65.14;99135.78;5031223;28;20111;-75
2022/05/25 07:37:19;;;;;;;0.05;0.05;;;;;;;22.91;64.01;99132.28;5031320;28;20271;-75
2022/05/25 07:39:50;;;;;;;0.00;0.00;;;;;;;22.88;64.38;99138.41;5031411;28;20049;-76
2022/05/25 07:42:18;;;;;;;0.20;0.20;;;;;;;22.90;64.83;99133.41;5031325;28;20509;-76
2022/05/25 07:44:59;;;;;;;0.00;0.00;;;;;;;22.89;64.51;99136.47;5031473;28;20049;-75
2022/05/25 07:47:27;;;;;;;0.00;0.00;;;;;;;23.03;64.76;99142.22;5031529;28;20599;-76
2022/05/25 07:49:52;;;;;;;0.05;0.05;;;;;;;23.11;64.34;99135.78;5031453;28;20033;-77
2022/05/25 07:52:20;;;;;;;0.10;0.10;;;;;;;23.18;65.00;99140.66;5031598;28;20120;-76
2022/05/25 07:54:46;;;;;;;0.00;0.00;;;;;;;23.26;65.39;99139.63;5030907;28;20044;-76
2022/05/25 07:57:12;;;;;;;0.00;0.00;;;;;;;23.27;64.36;99151.34;5031129;28;20041;-76
2022/05/25 07:59:38;;;;;;;0.00;0.00;;;;;;;23.22;64.91;99143.41;5029514;28;20090;-76
2022/05/25 08:07:44;;;;;;;0.00;0.00;;;;;;;23.34;63.81;99146.03;5030791;28;20040;-76
2022/05/25 08:10:18;;;;;;;0.00;0.00;;;;;;;23.37;63.19;99150.75;5031549;28;20030;-76
2022/05/25 08:12:45;;;;;;;0.15;0.15;;;;;;;23.41;63.70;99154.34;5030937;28;20039;-75
2022/05/25 08:15:12;;;;;;;0.00;0.00;;;;;;;23.43;63.52;99157.50;5030868;28;20135;-75
2022/05/25 08:17:38;;;;;;;0.20;0.20;;;;;;;23.48;63.74;99157.19;5030444;28;20040;-76
2022/05/25 08:20:05;;;;;;;0.00;0.00;;;;;;;23.50;64.03;99163.09;5030053;28;20477;-76
2022/05/25 08:22:33;;;;;;;0.00;0.00;;;;;;;23.52;62.83;99159.22;5030582;28;20030;-76
2022/05/25 08:24:58;;;;;;;0.00;0.00;;;;;;;23.42;63.81;99164.09;5029807;28;20451;-76
2022/05/25 08:27:24;;;;;;;0.35;0.35;;;;;;;23.29;63.04;99158.00;5042286;28;20032;-76
2022/05/25 08:29:50;;;;;;;0.00;0.00;;;;;;;23.17;63.12;99163.63;5050467;28;20028;-76
2022/05/25 08:32:15;;;;;;;0.10;0.10;;;;;;;23.03;64.46;99166.78;5050029;28;20033;-76
2022/05/25 08:34:41;;;;;;;0.60;0.43;;;;;;;22.94;65.00;99155.31;5049591;28;20051;-76
2022/05/25 08:37:07;;;;;;;0.40;0.28;;;;;;;22.91;66.58;99156.00;5050010;28;20024;-76
2022/05/25 08:39:32;;;;;;;0.08;0.08;;;;;;;22.83;64.03;99163.25;5049525;28;20142;-76
2022/05/25 08:42:02;;;;;;;0.13;0.13;;;;;;;22.75;64.53;99158.78;5050378;28;20017;-75
2022/05/25 08:44:28;;;;;;;0.08;0.08;;;;;;;22.75;64.46;99164.22;5050585;28;20037;-75
2022/05/25 08:46:57;;;;;;;0.80;0.50;;;;;;;22.66;64.61;99159.75;5049075;28;20131;-75
2022/05/25 08:49:25;;;;;;;0.10;0.10;;;;;;;22.70;64.39;99162.56;5049979;28;20025;-76
2022/05/25 08:51:55;;;;;;;0.00;0.00;;;;;;;22.74;64.55;99147.09;5050289;28;20044;-76
2022/05/25 08:54:23;;;;;;;0.00;0.00;;;;;;;22.92;64.56;99152.13;5050405;28;20033;-76
2022/05/25 08:57:16;;;;;;;0.20;0.20;;;;;;;22.96;65.09;99150.25;5050351;28;20040;-75
2022/05/25 08:59:58;;;;;;;0.20;0.20;;;;;;;23.01;66.01;99158.19;5050656;28;20131;-76
2022/05/25 09:02:29;;;;;;;0.20;0.20;;;;;;;23.03;64.89;99164.06;5050642;28;20032;-76
2022/05/25 09:05:16;;;;;;;0.40;0.40;;;;;;;22.99;63.82;99155.78;5050129;28;20447;-76
2022/05/25 09:07:47;;;;;;;0.43;0.40;;;;;;;23.00;63.91;99164.78;5050226;28;20083;-76
2022/05/25 09:10:15;;;;;;;0.35;0.35;;;;;;;23.02;63.74;99167.94;5049418;28;20411;-75
2022/05/25 09:12:47;;;;;;;;;;;;;;;23.07;64.72;99172.31;5050100;28;20033;-76
2022/05/25 09:15:23;;;;;;;0.17;0.17;;;;;;;23.05;65.05;99161.00;5049622;28;20425;-76
2022/05/25 09:17:58;;;;;;;0.20;0.20;;;;;;;23.04;64.09;99162.91;5049825;28;20120;-75
2022/05/25 09:20:28;;;;;;;1.55;0.40;;;;;;;23.08;64.90;99152.84;5049636;28;20128;-76
2022/05/25 09:22:56;;;;;;;0.30;0.30;;;;;;;23.21;64.87;99147.31;5048173;28;20377;-75
2022/05/25 09:25:22;;;;;;;0.40;0.40;;;;;;;23.33;64.72;99149.91;5050189;28;20052;-76
2022/05/25 09:28:03;;;;;;;0.20;0.20;;;;;;;23.39;64.58;99158.56;5033793;28;20064;-76
2022/05/25 09:30:32;;;;;;;0.50;0.50;;;;;;;23.45;64.23;99155.22;5029778;28;20021;-76
2022/05/25 09:33:25;;;;;;;0.00;0.00;;;;;;;23.47;62.95;99155.66;5029721;28;20026;-76
2022/05/25 09:35:57;;;;;;;0.10;0.10;;;;;;;23.41;62.88;99148.91;5029902;28;20061;-76
2022/05/25 09:38:34;;;;;;;0.50;0.50;;;;;;;23.39;63.77;99153.13;5029746;28;20025;-76
2022/05/25 09:41:06;;;;;;;1.35;1.08;;;;;;;23.39;65.03;99151.19;5030183;28;20033;-75
2022/05/25 09:43:33;;;;;;;1.27;1.17;;;;;;;23.42;64.89;99152.41;5030373;28;20026;-76
2022/05/25 09:46:10;;;;;;;0.10;0.10;;;;;;;23.51;64.28;99155.72;5030127;28;20030;-78
2022/05/25 09:48:48;;;;;;;0.30;0.30;;;;;;;23.55;64.54;99151.09;5029367;28;20029;-79
2022/05/25 09:51:33;;;;;;;0.20;0.20;;;;;;;23.61;63.29;99151.63;5031664;28;20045;-77
2022/05/25 09:54:12;;;;;;;0.00;0.00;;;;;;;23.57;63.04;99143.34;5031772;28;20029;-79
2022/05/25 09:56:43;;;;;;;0.00;0.00;;;;;;;23.55;64.26;99137.47;5035428;28;20034;-79
2022/05/25 09:59:24;;;;;;;0.20;0.20;;;;;;;23.53;64.14;99141.69;5033940;28;20029;-79
2022/05/25 10:01:50;;;;;;;0.28;0.28;;;;;;;23.52;63.02;99132.69;5033041;28;20065;-77
2022/05/25 10:04:54;;;;;;;0.30;0.30;;;;;;;23.52;62.79;99131.94;5045770;28;20112;-78
2022/05/25 10:07:34;;;;;;;0.10;0.10;;;;;;;23.53;63.60;99137.03;5052746;28;20127;-77
2022/05/25 10:10:10;;;;;;;0.10;0.10;;;;;;;23.57;63.78;99137.09;5051986;28;20025;-92
2022/05/25 10:12:39;;;;;;;0.10;0.10;;;;;;;23.65;63.40;99131.41;5051958;28;20036;-82
2022/05/25 10:15:13;;;;;;;0.10;0.10;;;;;;;23.73;63.43;99124.13;5051985;28;20025;-82
2022/05/25 10:17:42;;;;;;;0.50;0.50;;;;;;;23.81;64.09;99125.03;5051309;28;20056;-81
2022/05/25 10:20:24;;;;;;;0.40;0.40;;;;;;;23.93;63.98;99130.34;5033472;28;20397;-88
2022/05/25 10:23:19;;;;;;;0.20;0.20;;;;;;;24.01;62.73;99130.47;5037442;28;20025;-83
2022/05/25 10:25:48;;;;;;;0.32;0.20;;;;;;;24.08;63.68;99122.41;5031633;28;20021;-83
2022/05/25 10:28:30;;;;;;;0.45;0.45;;;;;;;24.13;64.29;99113.91;5051320;28;20025;-84
2022/05/25 10:37:07;;;;;;;0.43;0.43;;;;;;;24.42;61.42;99120.59;5052159;28;20048;-84
2022/05/25 10:39:35;;;;;;;0.13;0.13;;;;;;;24.44;60.12;99126.50;5051095;28;20378;-83
2022/05/25 10:42:18;;;;;;;0.30;0.30;;;;;;;24.51;59.85;99120.34;5052366;28;20086;-85
2022/05/25 10:44:47;;;;;;;0.10;0.10;;;;;;;24.56;59.20;99122.75;5050761;28;20029;-84
2022/05/25 10:47:47;;;;;;;0.10;0.10;;;;;;;24.64;58.54;99123.66;5051050;28;20069;-85
2022/05/25 10:50:30;;;;;;;0.10;0.10;;;;;;;24.70;58.18;99115.94;5042480;28;20051;-83
2022/05/25 10:52:58;;;;;;;0.10;0.10;;;;;;;24.67;58.49;99109.28;5050531;28;20542;-86
2022/05/25 10:55:32;;;;;;;0.10;0.10;;;;;;;24.65;58.28;99105.31;5050671;28;20033;-84
2022/05/25 10:58:06;;;;;;;0.05;0.05;;;;;;;24.65;58.28;99100.63;5050399;28;20397;-88
2022/05/25 11:00:58;;;;;;;0.20;0.20;;;;;;;24.64;58.40;99101.00;5050362;28;20040;-84
2022/05/25 11:03:43;;;;;;;0.20;0.20;;;;;;;24.64;59.14;99107.25;5050510;28;20033;-84
2022/05/25 11:06:45;;;;;;;0.85;0.82;;;;;;;24.73;59.44;99101.53;5052999;28;20032;-83
2022/05/25 11:09:41;;;;;;;0.22;0.22;;;;;;;24.78;58.77;99085.59;5051523;28;20071;-84
2022/05/25 11:12:29;;;;;;;0.10;0.10;;;;;;;24.81;58.43;99097.72;5050707;28;20447;-85
2022/05/25 11:15:13;;;;;;;0.20;0.20;;;;;;;24.82;57.21;99104.78;5050189;28;20116;-85
2022/05/25 11:17:57;;;;;;;0.15;0.15;;;;;;;24.86;58.79;99096.63;5052019;28;20071;-85
2022/05/25 11:20:39;;;;;;;0.00;0.00;;;;;;;24.87;58.75;99104.44;5051183;28;20039;-84
2022/05/25 11:23:23;;;;;;;0.00;0.00;;;;;;;24.83;57.93;99095.44;5050507;28;20029;-87
2022/05/25 11:26:03;;;;;;;0.10;0.10;;;;;;;24.80;58.17;99090.69;5051157;28;20094;-82
2022/05/25 11:28:43;;;;;;;0.75;0.32;;;;;;;24.81;59.09;99089.53;5031849;28;20040;-83
2022/05/25 11:31:34;;;;;;;0.10;0.10;;;;;;;24.88;59.79;99091.59;5030143;28;20509;-84
2022/05/25 11:34:09;;;;;;;3.10;0.28;;;;;;;24.89;59.97;99087.66;5029852;28;20168;-84
2022/05/25 11:36:50;;;;;;;0.00;0.00;;;;;;;24.97;59.49;99094.03;5030141;28;20089;-86
2022/05/25 11:39:22;;;;;;;0.10;0.10;;;;;;;25.04;58.41;99080.44;5029917;28;20033;-85
2022/05/25 11:42:03;;;;;;;0.05;0.05;;;;;;;25.05;57.47;99082.78;5029350;28;20041;-85
2022/05/25 11:45:01;;;;;;;0.00;0.00;;;;;;;25.05;58.45;99073.81;5030201;28;20026;-85
2022/05/25 11:47:51;;;;;;;0.00;0.00;;;;;;;25.08;57.74;99070.31;5041179;28;20041;-85
2022/05/25 11:50:19;;;;;;;0.00;0.00;;;;;;;25.13;58.19;99067.25;5030070;28;20036;-89
2022/05/25 11:52:52;;;;;;;0.00;0.00;;;;;;;25.19;58.75;99056.75;5029733;28;20029;-90
2022/05/25 11:55:36;;;;;;;0.10;0.10;;;;;;;25.23;57.67;99057.56;5029999;28;20032;-85
2022/05/25 11:58:15;;;;;;;1.63;1.52;;;;;;;25.17;58.09;99059.88;5029446;28;20044;-86
2022/05/25 12:00:46;;;;;;;0.10;0.10;;;;;;;25.13;57.63;99061.00;5029479;28;20056;-85
2022/05/25 12:03:26;;;;;;;0.30;0.30;;;;;;;25.10;57.44;99057.06;5029322;28;20493;-85
2022/05/25 12:06:16;;;;;;;0.43;0.43;;;;;;;25.06;58.01;99057.00;5029318;28;20033;-87
2022/05/25 12:08:50;;;;;;;0.68;0.68;;;;;;;25.05;56.84;99054.66;5029133;28;20425;-85
2022/05/25 12:11:25;;;;;;;0.75;0.75;;;;;;;25.07;57.25;99057.78;5029259;28;20124;-85
2022/05/25 12:14:17;;;;;;;0.13;0.13;;;;;;;25.08;57.29;99057.44;5028628;28;20264;-92
2022/05/25 12:16:46;;;;;;;0.25;0.25;;;;;;;25.13;57.69;99063.72;5028985;28;20034;-89